createdAt,value
2019-03-12T00:00:32.418Z,2.00
2019-03-12T00:03:00.696Z,2.53
2019-03-12T00:05:28.359Z,2.03
2019-03-12T00:07:56.256Z,2.10
2019-03-12T00:10:24.235Z,2.00
2019-03-12T00:12:52.474Z,2.37
2019-03-12T00:15:20.137Z,2.27
2019-03-12T00:17:48.718Z,2.60
2019-03-12T00:20:16.686Z,2.30
2019-03-12T00:22:44.630Z,2.50
2019-03-12T00:25:12.268Z,2.63
2019-03-12T00:27:40.182Z,2.13
2019-03-12T00:30:08.248Z,2.80
2019-03-12T00:32:36.221Z,2.47
2019-03-12T00:35:04.499Z,2.10
2019-03-12T00:37:32.495Z,2.90
2019-03-12T00:40:00.596Z,2.43
2019-03-12T00:42:28.893Z,2.73
2019-03-12T00:44:57.206Z,2.50
2019-03-12T00:47:24.851Z,2.77
2019-03-12T00:49:52.501Z,3.07
2019-03-12T00:52:20.151Z,2.83
2019-03-12T00:54:48.663Z,3.20
2019-03-12T00:57:16.327Z,3.03
2019-03-12T00:59:44.017Z,3.23
2019-03-12T01:02:12.029Z,3.00
2019-03-12T01:04:39.926Z,3.10
2019-03-12T01:07:07.940Z,3.10
2019-03-12T01:09:36.179Z,2.53
2019-03-12T01:12:04.142Z,2.40
2019-03-12T01:14:32.202Z,2.70
2019-03-12T01:17:00.491Z,2.90
2019-03-12T01:19:28.410Z,3.20
2019-03-12T01:21:56.732Z,2.97
2019-03-12T01:24:24.775Z,3.00
2019-03-12T01:26:53.082Z,2.83
2019-03-12T01:29:21.277Z,2.97
2019-03-12T01:31:49.634Z,3.53
2019-03-12T01:34:17.710Z,3.30
2019-03-12T01:36:45.634Z,3.63
2019-03-12T01:39:13.557Z,3.40
2019-03-12T01:41:42.130Z,3.23
2019-03-12T01:44:10.089Z,3.23
2019-03-12T01:46:38.488Z,3.43
2019-03-12T01:49:07.180Z,3.00
2019-03-12T01:51:35.947Z,3.60
2019-03-12T01:54:03.864Z,3.20
2019-03-12T01:56:31.793Z,3.57
2019-03-12T01:58:59.437Z,3.50
2019-03-12T02:01:27.093Z,3.67
2019-03-12T02:03:55.322Z,3.40
2019-03-12T02:06:23.009Z,3.90
2019-03-12T02:08:51.282Z,3.77
2019-03-12T02:11:19.628Z,3.43
2019-03-12T02:13:47.254Z,3.43
2019-03-12T02:16:14.905Z,3.93
2019-03-12T02:18:42.543Z,3.90
2019-03-12T02:21:10.736Z,3.87
2019-03-12T02:23:39.182Z,3.73
2019-03-12T02:26:07.171Z,3.87
2019-03-12T02:28:34.817Z,3.73
2019-03-12T02:31:02.813Z,3.67
2019-03-12T02:33:31.453Z,3.70
2019-03-12T02:35:59.160Z,3.70
2019-03-12T02:38:27.094Z,3.57
2019-03-12T02:40:55.446Z,3.30
2019-03-12T02:43:23.479Z,3.73
2019-03-12T02:45:51.424Z,4.43
2019-03-12T02:48:19.707Z,3.90
2019-03-12T02:50:47.637Z,3.63
2019-03-12T02:53:15.328Z,4.00
2019-03-12T02:55:43.006Z,3.53
2019-03-12T02:58:10.937Z,3.43
2019-03-12T03:00:38.936Z,3.60
2019-03-12T03:03:07.197Z,3.57
2019-03-12T03:05:41.607Z,3.83
2019-03-12T03:08:10.191Z,4.00
2019-03-12T03:10:38.164Z,3.93
2019-03-12T03:13:06.441Z,3.80
2019-03-12T03:15:39.249Z,3.20
2019-03-12T03:18:07.653Z,3.53
2019-03-12T03:20:35.777Z,3.23
2019-03-12T03:23:03.432Z,3.30
2019-03-12T03:25:31.456Z,3.20
2019-03-12T03:27:59.397Z,3.20
2019-03-12T03:30:27.659Z,3.30
2019-03-12T03:32:55.765Z,3.30
2019-03-12T03:35:23.547Z,3.23
2019-03-12T03:37:52.175Z,3.30
2019-03-12T03:40:20.390Z,2.93
2019-03-12T03:42:48.391Z,3.10
2019-03-12T03:45:16.607Z,3.30
2019-03-12T03:47:44.262Z,3.40
2019-03-12T03:50:12.202Z,3.63
2019-03-12T03:52:40.570Z,3.20
2019-03-12T03:55:10.181Z,3.17
2019-03-12T03:57:38.379Z,2.87
2019-03-12T04:00:06.749Z,2.87
2019-03-12T04:02:35.135Z,2.87
2019-03-12T04:05:02.828Z,3.10
2019-03-12T04:07:30.662Z,3.20
2019-03-12T04:09:58.529Z,3.40
2019-03-12T04:12:27.210Z,3.30
2019-03-12T04:14:54.962Z,3.17
2019-03-12T04:17:23.240Z,3.30
2019-03-12T04:19:51.429Z,3.13
2019-03-12T04:22:19.123Z,2.97
2019-03-12T04:24:48.062Z,3.40
2019-03-12T04:27:16.341Z,2.70
2019-03-12T04:29:44.714Z,3.13
2019-03-12T04:32:13.106Z,2.87
2019-03-12T04:34:42.306Z,2.70
2019-03-12T04:37:10.239Z,3.03
2019-03-12T04:39:38.246Z,3.07
2019-03-12T04:42:06.244Z,2.90
2019-03-12T04:44:34.721Z,2.30
2019-03-12T04:47:02.739Z,2.87
2019-03-12T04:49:31.050Z,2.73
2019-03-12T04:51:59.509Z,2.93
2019-03-12T04:54:27.765Z,2.93
2019-03-12T04:56:56.062Z,3.10
2019-03-12T04:59:23.800Z,2.90
2019-03-12T05:01:52.101Z,2.70
2019-03-12T05:04:20.102Z,3.10
2019-03-12T05:06:47.801Z,2.67
2019-03-12T05:09:15.920Z,2.50
2019-03-12T05:11:43.939Z,2.30
2019-03-12T05:14:43.022Z,2.47
2019-03-12T05:17:14.653Z,2.60
2019-03-12T05:19:43.286Z,2.57
2019-03-12T05:22:10.945Z,2.67
2019-03-12T05:24:39.366Z,2.50
2019-03-12T05:27:07.013Z,2.80
2019-03-12T05:29:35.011Z,2.63
2019-03-12T05:32:02.949Z,2.40
2019-03-12T05:34:30.613Z,3.03
2019-03-12T05:36:58.616Z,2.80
2019-03-12T05:39:26.368Z,2.60
2019-03-12T05:41:54.002Z,2.37
2019-03-12T05:44:22.197Z,2.57
2019-03-12T05:46:50.389Z,2.23
2019-03-12T05:49:18.644Z,2.63
2019-03-12T05:51:46.331Z,2.40
2019-03-12T05:54:14.650Z,2.73
2019-03-12T05:56:42.647Z,2.50
2019-03-12T05:59:10.746Z,2.87
2019-03-12T06:01:38.822Z,2.60
2019-03-12T06:04:06.781Z,2.67
2019-03-12T06:06:34.528Z,2.57
2019-03-12T06:09:03.355Z,2.50
2019-03-12T06:11:31.322Z,2.40
2019-03-12T06:13:59.345Z,2.60
2019-03-12T06:16:27.386Z,2.70
2019-03-12T06:18:55.617Z,3.10
2019-03-12T06:21:23.585Z,2.60
2019-03-12T06:23:51.533Z,2.90
2019-03-12T06:26:19.921Z,2.53
2019-03-12T06:28:47.578Z,2.70
2019-03-12T06:31:25.294Z,3.00
2019-03-12T06:34:02.434Z,2.40
2019-03-12T06:36:43.790Z,2.50
2019-03-12T06:39:43.264Z,2.90
2019-03-12T06:42:18.654Z,3.10
2019-03-12T06:45:18.213Z,2.77
2019-03-12T06:48:23.707Z,2.53
2019-03-12T06:51:00.749Z,2.50
2019-03-12T06:53:50.752Z,2.77
2019-03-12T06:56:27.712Z,2.30
2019-03-12T06:59:08.892Z,2.97
2019-03-12T07:01:43.526Z,3.10
2019-03-12T07:04:26.951Z,3.00
2019-03-12T07:07:22.877Z,2.77
2019-03-12T07:10:06.784Z,2.73
2019-03-12T07:13:00.276Z,3.50
2019-03-12T07:15:36.154Z,2.50
2019-03-12T07:18:22.723Z,2.77
2019-03-12T07:21:09.152Z,2.30
2019-03-12T07:23:56.398Z,2.50
2019-03-12T07:26:53.350Z,2.63
2019-03-12T07:29:52.117Z,2.60
2019-03-12T07:32:41.668Z,2.90
2019-03-12T07:35:32.174Z,2.93
2019-03-12T07:38:18.948Z,2.50
2019-03-12T07:41:06.528Z,2.33
2019-03-12T07:43:51.873Z,2.80
2019-03-12T07:46:42.012Z,2.40
2019-03-12T07:49:43.913Z,2.57
2019-03-12T07:52:22.294Z,2.37
2019-03-12T07:55:18.170Z,2.57
2019-03-12T07:58:07.965Z,2.50
2019-03-12T08:01:03.665Z,2.03
2019-03-12T08:03:58.936Z,2.63
2019-03-12T08:06:51.148Z,2.20
2019-03-12T08:09:40.947Z,2.40
2019-03-12T08:12:15.973Z,2.90
2019-03-12T08:15:06.136Z,2.50
2019-03-12T08:17:56.022Z,2.60
2019-03-12T08:20:33.609Z,2.63
2019-03-12T08:23:26.259Z,2.30
2019-03-12T08:26:13.313Z,2.63
2019-03-12T08:28:47.642Z,2.37
2019-03-12T08:31:37.509Z,2.80
2019-03-12T08:34:14.457Z,2.80
2019-03-12T08:36:48.861Z,2.53
2019-03-12T08:39:34.814Z,2.20
2019-03-12T08:42:21.577Z,2.00
2019-03-12T08:44:59.400Z,2.20
2019-03-12T08:48:04.464Z,2.43
2019-03-12T08:50:47.281Z,2.00
2019-03-12T08:53:41.221Z,1.97
2019-03-12T08:56:18.506Z,1.90
2019-03-12T08:58:53.523Z,2.40
2019-03-12T09:02:02.295Z,1.80
2019-03-12T09:04:48.049Z,2.07
2019-03-12T09:07:25.848Z,1.47
2019-03-12T09:10:28.425Z,2.10
2019-03-12T09:13:18.350Z,1.77
2019-03-12T09:15:59.184Z,2.00
2019-03-12T09:18:52.221Z,1.80
2019-03-12T09:21:33.246Z,1.90
2019-03-12T09:24:15.082Z,2.07
2019-03-12T09:27:02.184Z,1.70
2019-03-12T09:29:45.182Z,2.00
2019-03-12T09:32:31.017Z,1.93
2019-03-12T09:35:13.267Z,2.73
2019-03-12T09:37:49.136Z,2.13
2019-03-12T09:40:36.566Z,2.03
2019-03-12T09:43:41.547Z,2.00
2019-03-12T09:46:31.099Z,1.90
2019-03-12T09:49:08.838Z,1.73
2019-03-12T09:51:48.882Z,1.50
2019-03-12T09:54:34.527Z,1.70
2019-03-12T09:57:12.908Z,2.00
2019-03-12T09:59:58.326Z,1.50
2019-03-12T10:02:48.864Z,2.07
2019-03-12T10:05:32.318Z,2.03
2019-03-12T10:08:13.761Z,2.80
2019-03-12T10:11:09.945Z,1.90
2019-03-12T10:13:48.501Z,2.03
2019-03-12T10:16:27.745Z,1.50
2019-03-12T10:19:09.250Z,1.93
2019-03-12T10:21:44.101Z,1.73
2019-03-12T10:24:46.026Z,2.20
2019-03-12T10:27:31.379Z,2.27
2019-03-12T10:30:15.893Z,2.10
2019-03-12T10:33:03.258Z,1.53
2019-03-12T10:35:42.298Z,1.90
2019-03-12T10:38:47.978Z,1.63
2019-03-12T10:41:26.984Z,1.93
2019-03-12T10:44:02.044Z,1.90
2019-03-12T10:46:43.457Z,1.60
2019-03-12T10:49:11.901Z,1.80
2019-03-12T10:51:39.902Z,1.90
2019-03-12T10:54:08.163Z,1.97
2019-03-12T10:56:36.084Z,1.60
2019-03-12T10:59:03.887Z,1.87
2019-03-12T11:01:32.365Z,2.33
2019-03-12T11:04:00.443Z,2.10
2019-03-12T11:06:28.397Z,2.03
2019-03-12T11:08:56.131Z,1.90
2019-03-12T11:11:24.115Z,1.63
2019-03-12T11:13:52.118Z,1.73
2019-03-12T11:16:20.163Z,1.60
2019-03-12T11:18:48.234Z,1.73
2019-03-12T11:21:16.428Z,1.50
2019-03-12T11:23:45.126Z,1.80
2019-03-12T11:26:13.281Z,2.00
2019-03-12T11:28:41.669Z,2.20
2019-03-12T11:31:09.632Z,1.80
2019-03-12T11:33:37.349Z,1.80
2019-03-12T11:36:05.590Z,1.87
2019-03-12T11:38:34.016Z,2.00
2019-03-12T11:41:02.029Z,2.00
2019-03-12T11:43:29.670Z,1.90
2019-03-12T11:45:58.037Z,1.60
2019-03-12T11:48:26.562Z,1.80
2019-03-12T11:50:55.284Z,1.90
2019-03-12T11:53:24.216Z,1.97
2019-03-12T11:55:52.421Z,1.60
2019-03-12T11:58:20.517Z,1.67
2019-03-12T12:00:53.108Z,1.57
2019-03-12T12:03:21.121Z,1.60
2019-03-12T12:05:49.043Z,1.40
2019-03-12T12:08:17.254Z,2.07
2019-03-12T12:10:45.454Z,1.50
2019-03-12T12:13:13.505Z,1.90
2019-03-12T12:15:41.385Z,1.90
2019-03-12T12:18:09.070Z,1.53
2019-03-12T12:20:37.648Z,1.60
2019-03-12T12:23:05.320Z,1.70
2019-03-12T12:25:33.685Z,2.20
2019-03-12T12:28:01.575Z,1.63
2019-03-12T12:30:29.884Z,2.03
2019-03-12T12:32:57.813Z,2.40
2019-03-12T12:35:25.838Z,1.50
2019-03-12T12:37:53.607Z,1.93
2019-03-12T12:40:21.969Z,2.07
2019-03-12T12:42:49.910Z,1.57
2019-03-12T12:45:18.401Z,1.70
2019-03-12T12:47:46.056Z,2.00
2019-03-12T12:50:13.985Z,1.50
2019-03-12T12:52:41.983Z,1.57
2019-03-12T12:55:10.013Z,1.13
2019-03-12T12:57:37.985Z,1.77
2019-03-12T13:00:05.906Z,1.40
2019-03-12T13:02:34.122Z,1.57
2019-03-12T13:05:02.095Z,1.80
2019-03-12T13:07:30.063Z,1.80
2019-03-12T13:09:57.706Z,1.53
2019-03-12T13:12:25.969Z,1.50
2019-03-12T13:14:54.286Z,1.37
2019-03-12T13:17:22.649Z,1.60
2019-03-12T13:19:50.579Z,2.00
2019-03-12T13:22:18.910Z,1.80
2019-03-12T13:24:48.834Z,1.50
2019-03-12T13:27:17.142Z,1.53
2019-03-12T13:29:44.871Z,1.20
2019-03-12T13:32:14.001Z,1.30
2019-03-12T13:34:42.038Z,1.83
2019-03-12T13:37:09.661Z,1.43
2019-03-12T13:39:37.667Z,1.47
2019-03-12T13:42:05.993Z,1.60
2019-03-12T13:44:34.347Z,1.50
2019-03-12T13:47:02.421Z,1.70
2019-03-12T13:49:30.755Z,1.30
2019-03-12T13:51:58.438Z,1.40
2019-03-12T13:54:26.748Z,1.70
2019-03-12T13:56:54.720Z,1.50
2019-03-12T13:59:22.524Z,1.73
2019-03-12T14:01:51.149Z,1.80
2019-03-12T14:04:19.832Z,1.50
2019-03-12T14:06:47.542Z,1.63
2019-03-12T14:09:15.513Z,1.67
2019-03-12T14:11:43.538Z,1.50
2019-03-12T14:14:12.024Z,1.60
2019-03-12T14:16:39.897Z,1.30
2019-03-12T14:19:08.239Z,1.30
2019-03-12T14:21:40.105Z,1.60
2019-03-12T14:24:08.022Z,1.47
2019-03-12T14:26:36.176Z,1.47
2019-03-12T14:29:04.118Z,1.50
2019-03-12T14:31:31.797Z,1.30
2019-03-12T14:33:59.793Z,1.40
2019-03-12T14:36:27.459Z,1.70
2019-03-12T14:38:55.150Z,1.40
2019-03-12T14:41:23.248Z,1.90
2019-03-12T14:43:51.162Z,1.70
2019-03-12T14:46:19.485Z,1.53
2019-03-12T14:48:55.248Z,1.50
2019-03-12T14:51:28.521Z,1.60
2019-03-12T14:53:56.679Z,1.87
2019-03-12T14:56:26.589Z,1.73
2019-03-12T14:58:54.885Z,1.30
2019-03-12T15:01:22.816Z,1.60
2019-03-12T15:03:51.073Z,1.47
2019-03-12T15:06:19.062Z,1.50
2019-03-12T15:08:47.314Z,1.40
2019-03-12T15:11:15.966Z,1.50
2019-03-12T15:13:43.900Z,1.60
2019-03-12T15:16:11.882Z,1.83
2019-03-12T15:18:39.844Z,1.80
2019-03-12T15:21:08.162Z,1.50
2019-03-12T15:23:36.182Z,1.50
2019-03-12T15:26:03.837Z,1.60
2019-03-12T15:28:31.497Z,1.60
2019-03-12T15:31:02.118Z,1.80
2019-03-12T15:33:29.185Z,2.00
2019-03-12T15:35:57.169Z,1.40
2019-03-12T15:38:25.124Z,1.53
2019-03-12T15:40:52.821Z,1.30
2019-03-12T15:43:20.866Z,1.87
2019-03-12T15:45:48.881Z,1.70
2019-03-12T15:48:17.029Z,1.30
2019-03-12T15:50:45.421Z,1.10
2019-03-12T15:53:14.881Z,1.33
2019-03-12T15:55:42.846Z,1.20
2019-03-12T15:58:10.879Z,1.60
2019-03-12T16:00:38.564Z,1.40
2019-03-12T16:03:06.246Z,1.50
2019-03-12T16:05:34.729Z,1.40
2019-03-12T16:08:02.368Z,1.30
2019-03-12T16:10:30.706Z,1.47
2019-03-12T16:12:58.741Z,2.20
2019-03-12T16:15:26.762Z,1.43
2019-03-12T16:17:55.437Z,1.40
2019-03-12T16:20:23.410Z,1.40
2019-03-12T16:22:51.324Z,1.50
2019-03-12T16:25:18.966Z,1.30
2019-03-12T16:27:47.148Z,1.20
2019-03-12T16:30:14.905Z,1.33
2019-03-12T16:32:42.564Z,1.20
2019-03-12T16:35:10.305Z,1.90
2019-03-12T16:37:38.358Z,1.17
2019-03-12T16:40:06.009Z,1.30
2019-03-12T16:42:35.385Z,1.27
2019-03-12T16:45:03.674Z,1.50
2019-03-12T16:47:31.441Z,1.47
2019-03-12T16:49:59.443Z,1.20
2019-03-12T16:52:27.473Z,1.20
2019-03-12T16:54:56.545Z,1.33
2019-03-12T16:57:24.626Z,1.40
2019-03-12T16:59:52.728Z,1.30
2019-03-12T17:02:20.693Z,1.40
2019-03-12T17:04:48.591Z,1.60
2019-03-12T17:07:16.526Z,1.43
2019-03-12T17:09:45.184Z,1.10
2019-03-12T17:12:13.285Z,1.47
2019-03-12T17:14:41.236Z,1.43
2019-03-12T17:17:08.999Z,1.40
2019-03-12T17:19:37.642Z,1.67
2019-03-12T17:22:05.570Z,1.60
2019-03-12T17:24:33.578Z,1.60
2019-03-12T17:27:01.376Z,1.30
2019-03-12T17:29:29.717Z,1.67
2019-03-12T17:31:57.353Z,1.40
2019-03-12T17:34:36.194Z,1.60
2019-03-12T17:37:01.396Z,1.40
2019-03-12T17:39:29.582Z,1.40
2019-03-12T17:42:00.807Z,1.30
2019-03-12T17:44:28.846Z,1.30
2019-03-12T17:46:57.071Z,1.17
2019-03-12T17:49:24.749Z,1.63
2019-03-12T17:51:52.744Z,1.30
2019-03-12T17:54:20.801Z,1.40
2019-03-12T17:56:48.805Z,1.30
2019-03-12T17:59:16.849Z,1.53
2019-03-12T18:01:44.936Z,1.60
2019-03-12T18:04:12.662Z,1.40
2019-03-12T18:06:41.150Z,1.47
2019-03-12T18:09:09.709Z,1.43
2019-03-12T18:11:37.662Z,1.53
2019-03-12T18:14:06.029Z,1.50
2019-03-12T18:16:40.865Z,1.40
2019-03-12T18:19:04.337Z,1.57
2019-03-12T18:21:32.378Z,1.50
2019-03-12T18:24:00.656Z,1.00
2019-03-12T18:26:28.575Z,1.30
2019-03-12T18:28:59.148Z,1.43
2019-03-12T18:31:26.215Z,1.60
2019-03-12T18:33:54.405Z,1.40
2019-03-12T18:36:22.705Z,1.50
2019-03-12T18:38:52.956Z,1.50
2019-03-12T18:41:20.380Z,1.23
2019-03-12T18:43:48.482Z,1.33
2019-03-12T18:46:16.457Z,1.40
2019-03-12T18:48:44.883Z,1.30
2019-03-12T18:51:12.997Z,1.53
2019-03-12T18:53:41.354Z,1.40
2019-03-12T18:56:09.470Z,1.10
2019-03-12T18:58:37.416Z,1.30
2019-03-12T19:01:14.682Z,1.27
2019-03-12T19:03:42.340Z,1.60
2019-03-12T19:06:10.350Z,1.40
2019-03-12T19:08:38.589Z,1.27
2019-03-12T19:11:06.907Z,1.30
2019-03-12T19:13:34.783Z,1.30
2019-03-12T19:16:02.768Z,1.60
2019-03-12T19:18:30.765Z,1.40
2019-03-12T19:20:58.463Z,1.50
2019-03-12T19:23:26.129Z,1.77
2019-03-12T19:25:54.888Z,1.57
2019-03-12T19:28:22.926Z,1.40
2019-03-12T19:30:52.788Z,1.10
2019-03-12T19:33:21.668Z,1.63
2019-03-12T19:35:49.975Z,1.20
2019-03-12T19:38:17.712Z,1.43
2019-03-12T19:40:45.365Z,1.60
2019-03-12T19:43:13.309Z,1.33
2019-03-12T19:45:41.205Z,1.53
2019-03-12T19:48:08.848Z,1.20
2019-03-12T19:50:36.484Z,1.53
2019-03-12T19:53:04.791Z,1.50
2019-03-12T19:55:34.092Z,1.20
2019-03-12T19:58:02.174Z,1.40
2019-03-12T20:00:30.813Z,1.40
2019-03-12T20:03:09.922Z,1.47
2019-03-12T20:05:28.323Z,1.67
2019-03-12T20:07:56.586Z,1.53
2019-03-12T20:11:01.903Z,1.40
2019-03-12T20:13:47.406Z,1.57
2019-03-12T20:16:40.337Z,1.43
2019-03-12T20:19:28.099Z,1.47
2019-03-12T20:22:15.536Z,1.63
2019-03-12T20:25:14.677Z,1.40
2019-03-12T20:28:04.277Z,1.43
2019-03-12T20:30:49.080Z,1.70
2019-03-12T20:33:38.666Z,1.60
2019-03-12T20:36:31.951Z,1.60
2019-03-12T20:39:28.205Z,1.63
2019-03-12T20:42:18.054Z,1.70
2019-03-12T20:45:02.921Z,1.60
2019-03-12T20:47:53.401Z,1.53
2019-03-12T20:50:38.897Z,1.57
2019-03-12T20:53:24.916Z,1.93
2019-03-12T20:56:10.605Z,1.87
2019-03-12T20:58:55.702Z,1.70
2019-03-12T21:02:01.183Z,1.37
2019-03-12T21:04:46.655Z,2.17
2019-03-12T21:07:32.308Z,1.70
2019-03-12T21:10:26.431Z,1.40
2019-03-12T21:13:13.910Z,1.70
2019-03-12T21:15:50.066Z,1.40
2019-03-12T21:18:48.866Z,1.40
2019-03-12T21:21:40.264Z,1.57
2019-03-12T21:24:15.443Z,1.37
2019-03-12T21:27:00.737Z,1.57
2019-03-12T21:29:43.590Z,1.77
2019-03-12T21:32:11.543Z,1.67
2019-03-12T21:34:39.213Z,2.03
2019-03-12T21:37:07.259Z,1.70
2019-03-12T21:39:34.954Z,1.60
2019-03-12T21:42:03.424Z,1.33
2019-03-12T21:44:31.583Z,0.90
2019-03-12T21:46:59.596Z,0.93
2019-03-12T21:49:27.599Z,0.90
2019-03-12T21:51:55.959Z,0.90
2019-03-12T21:54:23.937Z,0.90
2019-03-12T21:56:51.627Z,1.07
2019-03-12T21:59:19.730Z,0.93
2019-03-12T22:01:47.730Z,1.10
2019-03-12T22:04:15.741Z,1.40
2019-03-12T22:06:43.769Z,1.17
2019-03-12T22:09:11.500Z,1.63
2019-03-12T22:11:39.785Z,1.40
2019-03-12T22:14:07.719Z,1.77
2019-03-12T22:16:35.831Z,1.90
2019-03-12T22:19:03.779Z,2.00
2019-03-12T22:21:43.421Z,1.97
2019-03-12T22:24:12.102Z,2.37
2019-03-12T22:26:39.758Z,2.60
2019-03-12T22:29:07.537Z,2.60
2019-03-12T22:31:35.933Z,3.00
2019-03-12T22:34:04.485Z,2.77
2019-03-12T22:36:32.146Z,2.83
2019-03-12T22:39:00.326Z,2.90
2019-03-12T22:41:27.994Z,2.93
2019-03-12T22:43:56.469Z,3.30
2019-03-12T22:46:25.042Z,2.77
2019-03-12T22:48:52.686Z,2.70
2019-03-12T22:51:20.885Z,2.60
2019-03-12T22:53:49.224Z,2.70
2019-03-12T22:56:17.433Z,2.93
2019-03-12T22:58:45.774Z,2.57
2019-03-12T23:01:13.876Z,2.83
2019-03-12T23:03:41.541Z,3.00
2019-03-12T23:06:09.461Z,3.17
2019-03-12T23:08:37.385Z,2.70
2019-03-12T23:11:05.662Z,3.13
2019-03-12T23:13:33.882Z,3.10
2019-03-12T23:16:02.027Z,3.57
2019-03-12T23:18:30.086Z,3.00
2019-03-12T23:20:59.198Z,3.23
2019-03-12T23:23:26.944Z,3.00
2019-03-12T23:25:54.926Z,3.17
2019-03-12T23:28:22.678Z,3.60
2019-03-12T23:30:50.319Z,3.17
2019-03-12T23:33:18.261Z,3.73
2019-03-12T23:35:46.585Z,3.53
2019-03-12T23:38:15.267Z,3.97
2019-03-12T23:40:43.517Z,4.40
2019-03-12T23:43:11.172Z,4.57
2019-03-12T23:45:39.121Z,4.23
2019-03-12T23:48:07.094Z,5.10
2019-03-12T23:50:35.093Z,4.80
2019-03-12T23:53:03.281Z,4.30
2019-03-12T23:55:31.036Z,4.90
2019-03-12T23:57:58.731Z,4.47
